Time;durP1;ratioP1;P1;durP2;ratioP2;P2;SDS_P1;SDS_P2;PMS_P1;PMS_P2;Temp;Humidity;BMP_temperature;BMP_pressure;BME280_temperature;BME280_humidity;BME280_pressure;Samples;Min_cycle;Max_cycle;Signal;HPM_P1;HPM_P2
2022/11/30 00:00:05;;;;;;;2.10;1.10;;;;;;;5.59;100.00;96913.50;4954686;28;20042;-75
2022/11/30 00:02:57;;;;;;;2.10;1.20;;;;;;;5.63;100.00;96912.06;4952652;28;20100;-75
2022/11/30 00:05:43;;;;;;;2.10;1.27;;;;;;;5.70;100.00;96912.06;4955743;28;20042;-73
2022/11/30 00:08:29;;;;;;;2.10;1.30;;;;;;;5.64;100.00;96913.69;4955556;28;20055;-74
2022/11/30 00:11:17;;;;;;;2.30;1.45;;;;;;;5.63;100.00;96909.41;4953768;28;20113;-72
2022/11/30 00:14:05;;;;;;;2.63;1.75;;;;;;;5.63;100.00;96903.28;4954822;28;20034;-74
2022/11/30 00:16:52;;;;;;;2.53;1.70;;;;;;;5.68;100.00;96903.47;4956554;28;20130;-74
2022/11/30 00:19:37;;;;;;;2.53;1.58;;;;;;;5.65;100.00;96912.66;4945543;28;20104;-75
2022/11/30 00:22:23;;;;;;;2.83;1.58;;;;;;;5.62;100.00;96913.09;4955616;28;20125;-74
2022/11/30 00:25:09;;;;;;;2.85;1.83;;;;;;;5.61;100.00;96915.97;4956087;28;20056;-72
2022/11/30 00:27:59;;;;;;;2.92;1.80;;;;;;;5.55;100.00;96913.09;4955744;28;20126;-73
2022/11/30 00:30:55;;;;;;;3.75;2.50;;;;;;;5.55;100.00;96912.28;4942491;28;20047;-75
2022/11/30 00:33:42;;;;;;;3.45;2.30;;;;;;;5.63;100.00;96913.91;4937664;28;20042;-71
2022/11/30 00:36:28;;;;;;;3.67;2.47;;;;;;;5.53;100.00;96912.50;4937574;28;20363;-73
2022/11/30 00:39:13;;;;;;;3.40;2.38;;;;;;;5.56;100.00;96916.56;4934317;28;20043;-74
2022/11/30 00:41:59;;;;;;;3.30;2.38;;;;;;;5.52;100.00;96912.69;4921069;28;20490;-74
2022/11/30 00:44:45;;;;;;;2.50;1.58;;;;;;;5.53;100.00;96909.03;4939440;28;20045;-73
2022/11/30 00:47:31;;;;;;;4.15;3.13;;;;;;;5.52;100.00;96900.22;4937754;28;20105;-75
2022/11/30 00:50:17;;;;;;;3.85;2.70;;;;;;;5.55;100.00;96899.00;4934909;28;20402;-73
2022/11/30 00:53:03;;;;;;;2.70;1.70;;;;;;;5.54;100.00;96908.00;4933759;28;20158;-73
2022/11/30 00:55:48;;;;;;;3.13;2.00;;;;;;;5.58;100.00;96895.94;4937252;28;20214;-74
2022/11/30 00:58:34;;;;;;;3.45;2.20;;;;;;;5.59;100.00;96894.91;4937180;28;20480;-73
2022/11/30 01:01:20;;;;;;;3.95;2.58;;;;;;;5.63;100.00;96893.47;4935885;28;20050;-73
2022/11/30 01:04:06;;;;;;;3.00;1.90;;;;;;;5.68;100.00;96903.47;4935325;28;20039;-77
2022/11/30 01:06:52;;;;;;;2.10;1.27;;;;;;;5.70;100.00;96894.28;4927582;28;20062;-77
2022/11/30 01:09:38;;;;;;;4.70;3.13;;;;;;;5.66;100.00;96901.03;4936250;28;20047;-75
2022/11/30 01:12:25;;;;;;;3.08;1.90;;;;;;;5.67;100.00;96892.03;4932112;28;20748;-72
2022/11/30 01:15:11;;;;;;;3.67;2.10;;;;;;;5.63;100.00;96900.63;4937082;28;20054;-71
2022/11/30 01:18:00;;;;;;;2.38;1.40;;;;;;;5.68;100.00;96908.78;4936661;28;20050;-73
2022/11/30 01:20:45;;;;;;;3.60;2.13;;;;;;;5.61;100.00;96906.16;4921271;28;20038;-75
2022/11/30 01:23:32;;;;;;;3.85;2.60;;;;;;;5.68;100.00;96899.00;4934399;28;20503;-76
2022/11/30 01:26:18;;;;;;;3.03;1.85;;;;;;;5.69;100.00;96913.91;4937640;28;20352;-76
2022/11/30 01:29:04;;;;;;;2.10;1.17;;;;;;;5.70;100.00;96907.56;4935299;28;20038;-75
2022/11/30 01:31:51;;;;;;;3.33;2.17;;;;;;;5.74;100.00;96914.09;4934488;28;20058;-74
2022/11/30 01:34:37;;;;;;;3.50;2.30;;;;;;;5.77;100.00;96907.56;4935639;28;20690;-74
2022/11/30 01:37:27;;;;;;;3.03;1.88;;;;;;;5.81;100.00;96912.25;4934832;28;20488;-76
2022/11/30 01:40:13;;;;;;;2.22;1.20;;;;;;;5.85;100.00;96917.97;4935395;28;20117;-74
2022/11/30 01:42:58;;;;;;;2.83;1.83;;;;;;;5.90;100.00;96923.47;4933157;28;20050;-73
2022/11/30 01:45:48;;;;;;;3.15;1.98;;;;;;;5.84;100.00;96917.16;4936490;28;20049;-75
2022/11/30 01:48:34;;;;;;;4.65;3.38;;;;;;;5.85;100.00;96912.66;4935631;28;20334;-74
2022/11/30 01:51:20;;;;;;;4.15;2.70;;;;;;;5.86;100.00;96915.09;4920465;28;20083;-72
2022/11/30 01:54:09;;;;;;;3.40;2.10;;;;;;;5.87;100.00;96911.41;4921422;28;20293;-74
2022/11/30 01:57:04;;;;;;;3.65;2.28;;;;;;;5.85;100.00;96902.84;4934932;28;20047;-73
2022/11/30 01:59:53;;;;;;;2.78;1.80;;;;;;;5.93;100.00;96911.66;4919877;28;20609;-71
2022/11/30 02:02:49;;;;;;;3.28;2.17;;;;;;;5.88;100.00;96901.59;4935796;28;20157;-71
2022/11/30 02:05:38;;;;;;;4.05;2.85;;;;;;;5.85;100.00;96912.66;4936267;28;20047;-74
2022/11/30 02:08:27;;;;;;;3.60;2.30;;;;;;;5.80;100.00;96907.94;4921288;28;20050;-72
2022/11/30 02:11:14;;;;;;;2.92;1.80;;;;;;;5.81;100.00;96908.78;4934138;28;20043;-71
2022/11/30 02:14:13;;;;;;;5.57;3.85;;;;;;;5.82;100.00;96907.75;4935099;28;20043;-72
2022/11/30 02:17:30;;;;;;;4.07;2.80;;;;;;;5.80;100.00;96907.94;4937080;28;20040;-74
2022/11/30 02:20:46;;;;;;;3.17;2.00;;;;;;;5.73;100.00;96906.34;4934205;28;20083;-74
2022/11/30 02:23:53;;;;;;;3.08;1.98;;;;;;;5.71;100.00;96906.53;4913391;28;20542;-72
2022/11/30 02:26:42;;;;;;;3.65;2.58;;;;;;;5.71;100.00;96911.84;4939704;28;20594;-73
2022/11/30 02:29:46;;;;;;;4.10;2.40;;;;;;;5.72;100.00;96907.34;4941586;28;20482;-73
2022/11/30 02:32:38;;;;;;;4.03;2.83;;;;;;;5.67;100.00;96900.00;4929042;28;20079;-73
2022/11/30 02:35:31;;;;;;;3.78;2.40;;;;;;;5.63;100.00;96900.63;4937732;28;20047;-73
2022/11/30 02:38:21;;;;;;;3.92;2.45;;;;;;;5.56;100.00;96904.09;4937460;28;20045;-75
2022/11/30 02:41:07;;;;;;;7.97;5.55;;;;;;;5.53;100.00;96899.22;4939106;28;20126;-73
2022/11/30 02:43:53;;;;;;;3.50;2.42;;;;;;;5.58;100.00;96906.56;4937980;28;20455;-71
2022/11/30 02:47:21;;;;;;;3.92;2.78;;;;;;;5.61;100.00;96924.75;4923537;28;20051;-73
2022/11/30 02:50:14;;;;;;;3.50;2.28;;;;;;;5.63;100.00;96911.25;4937740;28;20232;-71
2022/11/30 02:53:00;;;;;;;4.50;3.05;;;;;;;5.61;100.00;96922.09;4937864;28;20042;-74
2022/11/30 02:55:46;;;;;;;3.80;2.67;;;;;;;5.61;100.00;96910.66;4939754;28;20361;-73
2022/11/30 02:58:32;;;;;;;3.85;2.50;;;;;;;5.64;100.00;96912.88;4940076;28;20082;-73
2022/11/30 03:01:18;;;;;;;2.80;1.77;;;;;;;5.62;100.00;96920.25;4937719;28;20046;-72
2022/11/30 03:04:04;;;;;;;4.82;3.33;;;;;;;5.54;100.00;96927.41;4937460;28;20258;-73
2022/11/30 03:06:50;;;;;;;4.57;3.17;;;;;;;5.54;100.00;96922.09;4939758;28;20165;-72
2022/11/30 03:09:39;;;;;;;3.33;2.13;;;;;;;5.55;100.00;96933.53;4938334;28;20252;-71
2022/11/30 03:12:25;;;;;;;2.45;1.63;;;;;;;5.49;100.00;96932.50;4937886;28;20412;-73
2022/11/30 03:15:11;;;;;;;3.78;2.42;;;;;;;5.48;100.00;96930.06;4928499;28;20074;-72
2022/11/30 03:18:01;;;;;;;4.53;3.15;;;;;;;5.51;100.00;96932.28;4938436;28;20113;-74
2022/11/30 03:20:46;;;;;;;7.65;4.75;;;;;;;5.47;100.00;96931.06;4938558;28;20065;-74
2022/11/30 03:23:33;;;;;;;4.22;2.60;;;;;;;5.56;100.00;96929.84;4936260;28;20388;-73
2022/11/30 03:26:18;;;;;;;5.25;3.03;;;;;;;5.59;100.00;96918.81;4937291;28;20102;-74
2022/11/30 03:29:04;;;;;;;5.40;3.30;;;;;;;5.65;100.00;96922.47;4937638;28;20377;-73
2022/11/30 03:31:50;;;;;;;5.47;3.70;;;;;;;5.63;100.00;96932.50;4939608;28;20844;-71
2022/11/30 03:34:36;;;;;;;3.92;2.25;;;;;;;5.58;100.00;96931.25;4938698;28;20174;-72
2022/11/30 03:37:22;;;;;;;3.35;1.90;;;;;;;5.60;100.00;96925.75;4929959;28;20058;-73
2022/11/30 03:40:08;;;;;;;4.05;2.45;;;;;;;5.59;100.00;96916.16;4936576;28;20125;-71
2022/11/30 03:42:54;;;;;;;3.80;2.10;;;;;;;5.53;100.00;96914.34;4938282;28;20043;-75
2022/11/30 03:45:44;;;;;;;5.00;2.90;;;;;;;5.59;100.00;96918.81;4937804;28;20312;-74
2022/11/30 03:48:30;;;;;;;5.45;3.13;;;;;;;5.59;100.00;96919.63;4937093;28;20047;-73
2022/11/30 03:51:16;;;;;;;3.53;2.03;;;;;;;5.59;100.00;96932.06;4927133;28;20499;-73
2022/11/30 03:54:02;;;;;;;4.30;2.60;;;;;;;5.56;100.00;96913.91;4936678;28;20042;-75
2022/11/30 03:56:48;;;;;;;3.30;2.00;;;;;;;5.46;100.00;96919.63;4937868;28;20125;-76
2022/11/30 03:59:34;;;;;;;4.80;2.95;;;;;;;5.51;100.00;96922.47;4934880;28;20062;-76
2022/11/30 04:02:20;;;;;;;6.40;4.15;;;;;;;5.53;100.00;96919.66;4934439;28;20527;-75
2022/11/30 04:05:06;;;;;;;5.30;2.95;;;;;;;5.48;100.00;96924.75;4937920;28;20346;-75
2022/11/30 04:07:52;;;;;;;4.18;2.28;;;;;;;5.55;100.00;96923.72;4938423;28;20050;-73
2022/11/30 04:10:38;;;;;;;3.15;1.65;;;;;;;5.52;100.00;96916.16;4924924;28;20661;-75
2022/11/30 04:13:24;;;;;;;2.92;1.67;;;;;;;5.51;100.00;96911.03;4937251;28;20061;-75
2022/11/30 04:16:11;;;;;;;3.60;2.05;;;;;;;5.50;100.00;96912.06;4936898;28;20043;-74
2022/11/30 04:18:59;;;;;;;3.85;2.28;;;;;;;5.47;100.00;96925.75;4936889;28;20039;-74
2022/11/30 04:21:45;;;;;;;3.50;1.95;;;;;;;5.51;100.00;96913.69;4936479;28;20180;-72
2022/11/30 04:24:30;;;;;;;4.72;2.90;;;;;;;5.48;100.00;96903.50;4929262;28;20093;-75
2022/11/30 04:27:16;;;;;;;3.25;1.90;;;;;;;5.60;100.00;96915.13;4936637;28;20481;-76
2022/11/30 04:30:02;;;;;;;3.90;2.33;;;;;;;5.59;100.00;96919.63;4935647;28;20567;-72
2022/11/30 04:32:48;;;;;;;3.22;1.90;;;;;;;5.64;100.00;96918.19;4924613;28;20575;-76
2022/11/30 04:35:38;;;;;;;3.80;2.47;;;;;;;5.63;100.00;96919.22;4937462;28;20046;-73
2022/11/30 04:38:26;;;;;;;3.17;1.95;;;;;;;5.62;100.00;96917.59;4934575;28;20043;-74
2022/11/30 04:41:11;;;;;;;5.93;3.50;;;;;;;5.61;100.00;96916.78;4935057;28;20081;-72
2022/11/30 04:43:57;;;;;;;2.70;1.60;;;;;;;5.66;100.00;96924.09;4937179;28;20507;-75
2022/11/30 04:46:43;;;;;;;4.07;2.63;;;;;;;5.64;100.00;96920.84;4935683;28;20074;-75
2022/11/30 04:49:29;;;;;;;4.72;3.00;;;;;;;5.70;100.00;96920.84;4935999;28;20106;-76
2022/11/30 04:52:15;;;;;;;6.72;4.28;;;;;;;5.70;100.00;96923.50;4936007;28;20341;-70
2022/11/30 04:55:03;;;;;;;3.72;2.35;;;;;;;5.65;100.00;96917.97;4936019;28;20559;-72
2022/11/30 04:57:48;;;;;;;4.10;2.55;;;;;;;5.64;100.00;96926.16;4937174;28;20295;-75
2022/11/30 05:00:35;;;;;;;3.65;2.15;;;;;;;5.65;100.00;96923.28;4937409;28;20062;-73
2022/11/30 05:03:21;;;;;;;5.43;3.50;;;;;;;5.58;100.00;96920.63;4938967;28;20137;-75
2022/11/30 05:06:07;;;;;;;3.28;1.92;;;;;;;5.65;100.00;96931.25;4938139;28;20047;-74
2022/11/30 05:08:53;;;;;;;3.78;2.28;;;;;;;5.69;100.00;96924.53;4934924;28;20053;-76
2022/11/30 05:11:39;;;;;;;4.65;2.88;;;;;;;5.68;100.00;96922.06;4924551;28;20050;-74
2022/11/30 05:14:25;;;;;;;3.67;2.28;;;;;;;5.69;100.00;96927.19;4929686;28;20039;-71
2022/11/30 05:17:11;;;;;;;4.53;2.70;;;;;;;5.67;100.00;96925.75;4936753;28;20066;-70
2022/11/30 05:19:57;;;;;;;3.60;2.10;;;;;;;5.67;100.00;96929.22;4937020;28;20431;-74
2022/11/30 05:22:42;;;;;;;7.03;4.30;;;;;;;5.73;100.00;96930.22;4933305;28;20467;-73
2022/11/30 05:25:28;;;;;;;4.43;2.85;;;;;;;5.74;100.00;96937.97;4938536;28;20503;-71
2022/11/30 05:28:14;;;;;;;3.97;2.38;;;;;;;5.70;100.00;96939.44;4936750;28;20568;-74
2022/11/30 05:31:04;;;;;;;4.30;2.70;;;;;;;5.65;100.00;96935.75;4933635;28;20483;-74
2022/11/30 05:33:51;;;;;;;6.18;3.78;;;;;;;5.65;100.00;96943.72;4920744;28;20078;-75
2022/11/30 05:36:37;;;;;;;6.18;3.67;;;;;;;5.63;100.00;96943.13;4936736;28;20538;-74
2022/11/30 05:39:22;;;;;;;4.13;2.65;;;;;;;5.69;100.00;96952.91;4934119;28;20039;-76
2022/11/30 05:42:08;;;;;;;3.75;2.22;;;;;;;5.65;100.00;96933.91;4934594;28;20046;-73
2022/11/30 05:44:54;;;;;;;3.97;2.40;;;;;;;5.66;100.00;96943.50;4923636;28;20568;-74
2022/11/30 05:47:40;;;;;;;3.15;1.60;;;;;;;5.64;100.00;96948.22;4936889;28;20118;-73
2022/11/30 05:50:26;;;;;;;4.80;2.67;;;;;;;5.68;100.00;96944.13;4937690;28;20053;-72
2022/11/30 05:53:12;;;;;;;4.28;2.42;;;;;;;5.72;100.00;96955.97;4936539;28;20088;-74
2022/11/30 05:56:06;;;;;;;5.55;3.08;;;;;;;5.69;100.00;96956.41;4938448;28;20057;-70
2022/11/30 05:58:52;;;;;;;5.15;3.03;;;;;;;5.74;100.00;96956.56;4927027;28;20066;-73
2022/11/30 06:01:38;;;;;;;6.43;3.83;;;;;;;5.74;100.00;96953.91;4937512;28;20044;-72
2022/11/30 06:04:24;;;;;;;3.45;2.00;;;;;;;5.75;100.00;96958.19;4924207;28;20220;-74
2022/11/30 06:07:13;;;;;;;3.90;2.47;;;;;;;5.70;100.00;96967.84;4935713;28;20047;-72
2022/11/30 06:09:59;;;;;;;5.00;2.88;;;;;;;5.73;100.00;96957.59;4935920;28;20047;-72
2022/11/30 06:12:45;;;;;;;3.28;1.98;;;;;;;5.69;100.00;96964.34;4936367;28;20074;-75
2022/11/30 06:15:31;;;;;;;4.00;2.25;;;;;;;5.65;100.00;96964.97;4937943;28;20050;-73
2022/11/30 06:18:16;;;;;;;3.95;2.53;;;;;;;5.67;100.00;96957.59;4922820;28;20039;-74
2022/11/30 06:21:06;;;;;;;4.60;2.80;;;;;;;5.64;100.00;96958.03;4935534;28;20099;-76
2022/11/30 06:23:52;;;;;;;3.85;2.08;;;;;;;5.66;100.00;96962.09;4929562;28;20106;-72
2022/11/30 06:26:38;;;;;;;4.82;3.00;;;;;;;5.60;100.00;96962.91;4935292;28;20051;-73
2022/11/30 06:29:24;;;;;;;3.78;2.15;;;;;;;5.58;100.00;96959.66;4937956;28;20074;-71
2022/11/30 06:32:10;;;;;;;3.28;1.80;;;;;;;5.60;100.00;96960.25;4936112;28;20050;-73
2022/11/30 06:34:56;;;;;;;3.90;2.17;;;;;;;5.64;100.00;96961.50;4927613;28;20074;-73
2022/11/30 06:37:41;;;;;;;5.10;2.95;;;;;;;5.63;100.00;96965.16;4938932;28;20043;-71
2022/11/30 06:40:28;;;;;;;3.47;2.20;;;;;;;5.59;100.00;96964.75;4937270;28;20230;-73
2022/11/30 06:43:13;;;;;;;6.18;4.18;;;;;;;5.57;100.00;96965.97;4926871;28;20062;-73
2022/11/30 06:46:01;;;;;;;4.28;2.70;;;;;;;5.52;100.00;96971.06;4937340;28;20254;-72
2022/11/30 06:48:51;;;;;;;7.43;4.78;;;;;;;5.55;100.00;96968.84;4924317;28;20066;-70
2022/11/30 06:51:38;;;;;;;5.15;3.08;;;;;;;5.50;100.00;96976.59;4934679;28;20093;-74
2022/11/30 06:54:24;;;;;;;3.55;2.05;;;;;;;5.47;100.00;96966.41;4936143;28;20106;-74
2022/11/30 06:57:10;;;;;;;6.00;3.47;;;;;;;5.44;100.00;96976.59;4937847;28;20637;-72
2022/11/30 06:59:56;;;;;;;3.50;1.83;;;;;;;5.54;100.00;96974.38;4937182;28;20039;-72
2022/11/30 07:02:42;;;;;;;3.88;2.28;;;;;;;5.54;100.00;96974.38;4935617;28;20078;-74
2022/11/30 07:05:28;;;;;;;3.75;2.20;;;;;;;5.34;100.00;96973.53;4938662;28;20273;-71
2022/11/30 07:08:15;;;;;;;3.95;2.35;;;;;;;5.28;100.00;96973.31;4937536;28;20080;-71
2022/11/30 07:11:01;;;;;;;3.38;1.95;;;;;;;5.39;100.00;96976.41;4939935;28;20594;-73
2022/11/30 07:13:47;;;;;;;5.13;3.33;;;;;;;5.26;100.00;96983.31;4941723;28;20077;-72
2022/11/30 07:16:33;;;;;;;3.97;2.63;;;;;;;5.24;100.00;96982.69;4931535;28;20527;-73
2022/11/30 07:19:19;;;;;;;3.63;2.20;;;;;;;5.32;100.00;96987.81;4939401;28;20464;-73
2022/11/30 07:22:04;;;;;;;3.70;2.20;;;;;;;5.41;100.00;96990.28;4928021;28;20043;-72
2022/11/30 07:27:55;;;;;;;3.83;2.50;;;;;;;5.45;100.00;96997.66;4941747;28;20062;-74
2022/11/30 07:30:41;;;;;;;3.70;2.30;;;;;;;5.42;100.00;96989.25;4919596;28;20047;-75
2022/11/30 07:33:30;;;;;;;5.13;3.33;;;;;;;5.40;100.00;96994.78;4598917;28;10000161;-71
2022/11/30 07:36:18;;;;;;;3.42;2.10;;;;;;;5.35;100.00;96991.91;4928134;28;20267;-75
2022/11/30 07:39:04;;;;;;;3.90;2.40;;;;;;;5.39;100.00;97000.28;4938378;28;20460;-73
2022/11/30 07:41:50;;;;;;;3.20;1.98;;;;;;;5.45;100.00;97007.44;4941417;28;20184;-73
2022/11/30 07:44:37;;;;;;;5.18;3.33;;;;;;;5.44;100.00;97005.78;4940331;28;20039;-71
2022/11/30 07:47:23;;;;;;;3.25;2.00;;;;;;;5.39;100.00;97011.72;4939377;28;20378;-73
2022/11/30 07:50:09;;;;;;;3.38;2.10;;;;;;;5.43;100.00;97007.63;4940471;28;20038;-71
2022/11/30 07:52:55;;;;;;;3.50;2.10;;;;;;;5.42;100.00;97018.44;4916666;28;20536;-71
2022/11/30 07:55:41;;;;;;;6.05;3.40;;;;;;;5.48;100.00;97012.34;4939152;28;20034;-74
2022/11/30 07:58:28;;;;;;;6.88;3.80;;;;;;;5.47;100.00;97013.38;4939480;28;20098;-72
2022/11/30 08:01:17;;;;;;;3.70;2.40;;;;;;;5.50;100.00;97023.56;4915119;28;20062;-71
2022/11/30 08:04:03;;;;;;;2.88;1.52;;;;;;;5.58;100.00;97023.38;4940137;28;20046;-72
2022/11/30 08:06:52;;;;;;;6.20;3.33;;;;;;;5.59;100.00;97020.50;4939186;28;20054;-74
2022/11/30 08:09:38;;;;;;;3.20;1.75;;;;;;;5.63;100.00;97015.63;4939298;28;20043;-73
2022/11/30 08:12:23;;;;;;;4.75;2.78;;;;;;;5.72;100.00;97017.03;4937894;28;20041;-75
2022/11/30 08:15:10;;;;;;;4.15;2.40;;;;;;;5.75;100.00;97024.59;4938403;28;20893;-72
2022/11/30 08:17:59;;;;;;;2.60;1.40;;;;;;;5.79;100.00;97015.22;4941137;28;20399;-74
2022/11/30 08:20:44;;;;;;;3.58;1.90;;;;;;;5.77;100.00;97016.44;4939057;28;20162;-74
2022/11/30 08:23:33;;;;;;;3.53;1.88;;;;;;;5.78;100.00;97021.56;4938201;28;20050;-75
2022/11/30 08:26:25;;;;;;;3.80;2.03;;;;;;;5.81;100.00;97020.31;4940396;28;20055;-73
2022/11/30 08:29:11;;;;;;;3.58;2.03;;;;;;;5.82;100.00;97022.75;4930443;28;20038;-73
2022/11/30 08:31:56;;;;;;;3.92;2.17;;;;;;;5.70;100.00;97011.13;4958770;28;20081;-72
2022/11/30 08:34:42;;;;;;;2.47;1.25;;;;;;;5.77;100.00;97027.06;4957113;28;20498;-69
2022/11/30 08:37:28;;;;;;;2.83;1.75;;;;;;;5.78;100.00;97018.06;4959263;28;20093;-73
2022/11/30 08:40:14;;;;;;;3.40;1.92;;;;;;;5.78;100.00;97018.06;4957131;28;20050;-72
2022/11/30 08:43:00;;;;;;;4.28;2.22;;;;;;;5.81;100.00;97018.47;4959128;28;20574;-71
2022/11/30 08:45:49;;;;;;;2.60;1.50;;;;;;;5.83;100.00;97020.91;4959916;28;20193;-73
2022/11/30 08:48:35;;;;;;;3.13;1.73;;;;;;;5.84;100.00;97025.22;4948149;28;20149;-73
2022/11/30 08:51:21;;;;;;;2.80;1.70;;;;;;;5.75;100.00;97027.25;4954991;28;20515;-73
2022/11/30 08:54:07;;;;;;;2.60;1.42;;;;;;;5.77;100.00;97025.22;4956712;28;20165;-70
2022/11/30 08:56:52;;;;;;;4.32;2.55;;;;;;;5.81;100.00;97023.78;4958146;28;20070;-71
2022/11/30 08:59:38;;;;;;;3.15;2.03;;;;;;;5.83;100.00;97023.56;4956468;28;20034;-74
2022/11/30 09:02:24;;;;;;;2.95;1.52;;;;;;;5.80;100.00;97022.16;4958893;28;20077;-73
2022/11/30 09:05:10;;;;;;;2.60;1.60;;;;;;;5.85;100.00;97024.22;4954694;28;20085;-73
2022/11/30 09:07:56;;;;;;;3.17;1.92;;;;;;;5.90;100.00;97031.53;4960799;28;20038;-75
2022/11/30 09:10:44;;;;;;;4.10;2.13;;;;;;;5.83;100.00;97027.03;4959631;28;20499;-72
2022/11/30 09:13:30;;;;;;;4.20;2.47;;;;;;;5.82;100.00;97036.03;4953941;28;20448;-73
2022/11/30 09:16:18;;;;;;;3.05;1.80;;;;;;;5.79;100.00;97033.00;4957722;28;20578;-73
2022/11/30 09:19:03;;;;;;;2.70;1.48;;;;;;;5.90;100.00;97042.16;4958235;28;20038;-72
2022/11/30 09:21:49;;;;;;;2.85;1.55;;;;;;;5.90;100.00;97045.66;4968943;28;20606;-75
2022/11/30 09:24:36;;;;;;;3.65;2.00;;;;;;;5.77;100.00;97035.03;4958314;28;20051;-73
2022/11/30 09:27:23;;;;;;;5.22;3.22;;;;;;;5.90;100.00;97031.53;4963950;28;20555;-73
2022/11/30 09:30:10;;;;;;;4.30;2.45;;;;;;;5.91;100.00;97036.69;4927687;28;20568;-72
2022/11/30 09:32:59;;;;;;;4.95;2.92;;;;;;;6.02;100.00;97032.59;4954616;28;20433;-71
2022/11/30 09:36:07;;;;;;;2.38;1.30;;;;;;;6.04;100.00;97030.56;4956330;28;20522;-75
2022/11/30 09:38:54;;;;;;;3.35;1.77;;;;;;;6.15;100.00;97035.25;4956155;28;20506;-75
2022/11/30 09:42:23;;;;;;;2.58;1.55;;;;;;;6.02;100.00;97028.09;4955224;28;20848;-75
2022/11/30 09:45:18;;;;;;;2.10;1.10;;;;;;;6.14;100.00;97038.91;4954300;28;20255;-75
2022/11/30 09:48:27;;;;;;;3.17;1.77;;;;;;;6.20;100.00;97029.31;4956550;28;20066;-73
2022/11/30 09:51:22;;;;;;;3.97;2.28;;;;;;;6.23;100.00;97039.53;4956468;28;20417;-75
2022/11/30 09:54:14;;;;;;;4.82;2.90;;;;;;;6.10;100.00;97035.88;4961676;28;20135;-74
2022/11/30 09:57:15;;;;;;;8.52;5.03;;;;;;;5.94;100.00;97030.16;4946381;28;20244;-75
2022/11/30 10:00:13;;;;;;;2.60;1.50;;;;;;;6.05;100.00;97038.31;4954321;28;20038;-73
2022/11/30 10:03:03;;;;;;;3.13;1.98;;;;;;;6.07;100.00;97043.41;4954361;28;20058;-72
2022/11/30 10:06:07;;;;;;;3.55;2.08;;;;;;;6.02;100.00;97045.91;4954661;28;20490;-71
2022/11/30 10:08:59;;;;;;;3.28;1.85;;;;;;;5.95;100.00;97045.88;4955118;28;20644;-75
2022/11/30 10:12:03;;;;;;;3.15;1.80;;;;;;;5.96;100.00;97047.53;4957228;28;20031;-73
2022/11/30 10:15:12;;;;;;;4.38;2.88;;;;;;;6.00;100.00;97039.97;4955221;28;20594;-75
2022/11/30 10:18:21;;;;;;;3.33;1.77;;;;;;;5.96;100.00;97044.03;4959166;28;20038;-75
2022/11/30 10:21:16;;;;;;;3.13;1.85;;;;;;;5.91;100.00;97044.66;4954651;28;20049;-74
2022/11/30 10:24:26;;;;;;;2.90;1.77;;;;;;;5.97;100.00;97043.84;4961319;28;20043;-74
2022/11/30 10:27:58;;;;;;;2.60;1.40;;;;;;;6.09;100.00;97039.56;4961415;28;20282;-72
2022/11/30 10:30:47;;;;;;;2.85;1.63;;;;;;;6.18;100.00;97040.16;4920860;28;20046;-73
2022/11/30 10:33:42;;;;;;;3.67;2.28;;;;;;;6.20;100.00;97040.75;4955099;28;20046;-75
2022/11/30 10:36:41;;;;;;;2.33;1.30;;;;;;;6.19;100.00;97040.97;4956684;28;20390;-75
2022/11/30 10:39:38;;;;;;;3.28;2.00;;;;;;;6.12;100.00;97046.28;4958267;28;20078;-76
2022/11/30 10:42:33;;;;;;;2.22;1.10;;;;;;;6.11;100.00;97042.00;4955443;28;20057;-75
2022/11/30 10:45:23;;;;;;;3.33;1.88;;;;;;;6.03;100.00;97032.41;4958655;28;20420;-77
2022/11/30 10:48:21;;;;;;;2.70;1.63;;;;;;;6.04;100.00;97034.03;4958010;28;20035;-76
2022/11/30 10:51:09;;;;;;;1.95;1.00;;;;;;;6.10;100.00;97038.53;4960692;28;20511;-75
2022/11/30 10:53:57;;;;;;;1.98;0.90;;;;;;;6.08;100.00;97034.44;4957135;28;20961;-77
2022/11/30 10:56:43;;;;;;;2.60;1.60;;;;;;;6.01;100.00;97034.44;4960278;28;20140;-76
2022/11/30 10:59:38;;;;;;;2.50;1.58;;;;;;;6.07;100.00;97035.44;4964649;28;20130;-72
2022/11/30 11:02:42;;;;;;;2.83;1.50;;;;;;;5.95;100.00;97018.50;4953932;28;20053;-72
2022/11/30 11:05:29;;;;;;;4.90;3.30;;;;;;;6.01;100.00;97030.97;4961585;28;20648;-73
2022/11/30 11:08:23;;;;;;;2.67;1.58;;;;;;;5.98;100.00;97026.88;4963612;28;20038;-76
2022/11/30 11:11:37;;;;;;;3.22;2.00;;;;;;;5.97;100.00;97035.88;4963463;28;20130;-75
2022/11/30 11:14:25;;;;;;;2.70;1.50;;;;;;;5.94;100.00;97027.50;4973969;28;20049;-73
2022/11/30 11:17:17;;;;;;;2.47;1.30;;;;;;;6.01;100.00;97036.28;4976545;28;20042;-71
2022/11/30 11:20:42;;;;;;;1.42;0.82;;;;;;;6.06;100.00;97037.28;4959546;28;20046;-73
2022/11/30 11:23:37;;;;;;;1.00;0.50;;;;;;;5.91;100.00;97019.94;4957491;28;20053;-75
2022/11/30 11:26:25;;;;;;;1.23;0.60;;;;;;;6.00;100.00;97034.66;4944506;28;20165;-75
2022/11/30 11:29:30;;;;;;;1.25;0.60;;;;;;;5.98;100.00;97026.06;4965840;28;20408;-71
2022/11/30 11:32:24;;;;;;;0.28;0.20;;;;;;;5.93;100.00;97021.38;4930576;28;20045;-74
2022/11/30 11:35:38;;;;;;;0.35;0.30;;;;;;;5.97;100.00;97024.44;4959671;28;20276;-76
2022/11/30 11:38:28;;;;;;;0.20;0.20;;;;;;;5.88;100.00;97027.25;4959117;28;20034;-75
2022/11/30 11:41:23;;;;;;;0.35;0.30;;;;;;;6.01;100.00;97025.66;4959294;28;20045;-76
2022/11/30 11:44:20;;;;;;;0.43;0.30;;;;;;;6.09;100.00;97022.78;4961251;28;20077;-73
2022/11/30 11:47:20;;;;;;;0.65;0.30;;;;;;;6.09;100.00;97020.13;4956884;28;20070;-75
2022/11/30 11:50:23;;;;;;;1.08;0.52;;;;;;;6.12;100.00;97031.16;4960668;28;20617;-74
2022/11/30 11:53:23;;;;;;;1.40;0.60;;;;;;;6.13;100.00;97030.13;4959526;28;20602;-72
2022/11/30 11:56:25;;;;;;;0.45;0.30;;;;;;;6.13;100.00;97026.66;4955715;28;20547;-74
2022/11/30 11:59:26;;;;;;;1.08;0.50;;;;;;;6.17;100.00;97027.88;4957736;28;20446;-75
2022/11/30 12:02:31;;;;;;;1.57;0.70;;;;;;;6.14;100.00;97018.47;4962461;28;20053;-74
2022/11/30 12:05:25;;;;;;;1.88;0.88;;;;;;;6.24;100.00;97019.91;4964469;28;20443;-73
2022/11/30 12:08:32;;;;;;;2.00;1.00;;;;;;;6.20;100.00;97027.47;4959889;28;20049;-71
2022/11/30 12:11:40;;;;;;;1.30;0.60;;;;;;;6.17;100.00;97027.88;4950646;28;20423;-74
2022/11/30 12:14:26;;;;;;;1.05;0.68;;;;;;;6.18;100.00;97026.06;4616259;28;10000182;-74
2022/11/30 12:17:34;;;;;;;2.05;1.20;;;;;;;6.19;100.00;97027.69;4961610;28;20054;-71
2022/11/30 12:20:34;;;;;;;0.77;0.40;;;;;;;6.12;100.00;97020.53;4958807;28;20241;-73
2022/11/30 12:23:32;;;;;;;1.25;0.60;;;;;;;6.09;100.00;97023.59;4960274;28;20393;-74
2022/11/30 12:26:29;;;;;;;1.38;0.80;;;;;;;6.05;100.00;97026.88;4963195;28;20076;-73
2022/11/30 12:29:26;;;;;;;0.45;0.30;;;;;;;6.03;100.00;97032.41;4957878;28;20200;-74
2022/11/30 12:32:29;;;;;;;0.28;0.28;;;;;;;6.03;100.00;97027.09;4940267;28;20139;-74
2022/11/30 12:35:33;;;;;;;0.30;0.30;;;;;;;6.14;100.00;97025.63;4939477;28;20338;-74
2022/11/30 12:38:35;;;;;;;0.20;0.20;;;;;;;6.16;100.00;97014.81;4933865;28;20342;-75
2022/11/30 12:41:39;;;;;;;0.57;0.40;;;;;;;6.09;100.00;97009.50;4939700;28;20133;-75
2022/11/30 12:44:48;;;;;;;0.32;0.20;;;;;;;6.05;100.00;97026.88;4936419;28;20166;-72
2022/11/30 12:47:52;;;;;;;0.20;0.20;;;;;;;6.04;100.00;97027.91;4940924;28;20073;-74
2022/11/30 12:50:50;;;;;;;0.13;0.13;;;;;;;6.02;100.00;97030.75;4934453;28;20158;-76
2022/11/30 12:54:06;;;;;;;0.20;0.20;;;;;;;6.07;100.00;97025.66;4935581;28;20090;-73
2022/11/30 12:57:03;;;;;;;0.20;0.20;;;;;;;6.14;100.00;97038.91;4921131;28;20512;-76
2022/11/30 13:00:21;;;;;;;0.20;0.20;;;;;;;6.23;100.00;97035.03;4933972;28;20468;-75
2022/11/30 13:03:38;;;;;;;0.20;0.20;;;;;;;6.31;100.00;97029.50;4936345;28;20051;-72
2022/11/30 13:06:34;;;;;;;0.20;0.20;;;;;;;6.38;100.00;97030.31;4938486;28;20069;-76
2022/11/30 13:09:25;;;;;;;0.20;0.20;;;;;;;6.53;100.00;97026.56;4938345;28;20058;-77
2022/11/30 13:12:26;;;;;;;0.20;0.20;;;;;;;6.54;100.00;97020.25;4940617;28;20042;-75
2022/11/30 13:15:18;;;;;;;0.20;0.20;;;;;;;6.48;100.00;97019.25;4919307;28;20135;-71
2022/11/30 13:18:06;;;;;;;0.20;0.20;;;;;;;6.62;100.00;97020.03;4926282;28;20078;-76
2022/11/30 13:21:12;;;;;;;0.13;0.13;;;;;;;6.54;100.00;97017.59;4943048;28;20324;-75
2022/11/30 13:24:15;;;;;;;0.20;0.20;;;;;;;6.35;100.00;97027.25;4937901;28;20390;-75
2022/11/30 13:27:27;;;;;;;0.10;0.10;;;;;;;6.48;100.00;97024.56;4940223;28;20065;-72